createdAt,value
2022-10-06T00:00:47.870Z,2.67
2022-10-06T00:03:14.732Z,3.55
2022-10-06T00:05:41.778Z,2.30
2022-10-06T00:08:10.292Z,2.28
2022-10-06T00:10:37.339Z,3.10
2022-10-06T00:13:04.230Z,3.03
2022-10-06T00:15:32.153Z,2.40
2022-10-06T00:17:59.067Z,3.25
2022-10-06T00:20:26.599Z,2.63
2022-10-06T00:22:53.431Z,2.50
2022-10-06T00:25:21.286Z,2.25
2022-10-06T00:27:49.774Z,2.50
2022-10-06T00:30:22.617Z,2.63
2022-10-06T00:32:54.043Z,2.38
2022-10-06T00:35:21.218Z,2.58
2022-10-06T00:37:48.095Z,2.58
2022-10-06T00:40:15.059Z,2.60
2022-10-06T00:43:02.161Z,3.22
2022-10-06T00:45:34.890Z,3.17
2022-10-06T00:48:04.602Z,2.50
2022-10-06T00:50:31.417Z,2.50
2022-10-06T00:52:58.335Z,2.20
2022-10-06T00:55:26.007Z,4.65
2022-10-06T00:57:52.840Z,2.45
2022-10-06T01:00:19.853Z,3.20
2022-10-06T01:02:52.649Z,2.20
2022-10-06T01:05:29.513Z,2.42
2022-10-06T01:07:56.548Z,3.88
2022-10-06T01:10:23.407Z,3.90
2022-10-06T01:12:50.254Z,2.65
2022-10-06T01:15:17.188Z,2.65
2022-10-06T01:17:47.983Z,2.97
2022-10-06T01:20:18.674Z,2.58
2022-10-06T01:22:56.135Z,3.42
2022-10-06T01:25:23.081Z,2.70
2022-10-06T01:27:53.816Z,3.15
2022-10-06T01:30:29.828Z,2.92
2022-10-06T01:32:56.818Z,4.00
2022-10-06T01:35:24.122Z,2.72
2022-10-06T01:37:51.264Z,2.75
2022-10-06T01:40:19.175Z,2.85
2022-10-06T01:42:46.339Z,3.85
2022-10-06T01:45:13.215Z,3.20
2022-10-06T01:47:40.058Z,3.50
2022-10-06T01:50:08.339Z,3.25
2022-10-06T01:52:35.887Z,3.42
2022-10-06T01:55:03.131Z,3.90
2022-10-06T01:57:31.108Z,3.03
2022-10-06T01:59:57.968Z,2.85
2022-10-06T02:02:24.808Z,2.30
2022-10-06T02:04:52.367Z,1.90
2022-10-06T02:07:19.526Z,2.63
2022-10-06T02:09:47.013Z,2.83
2022-10-06T02:12:14.830Z,2.33
2022-10-06T02:14:42.204Z,1.75
2022-10-06T02:17:10.134Z,2.28
2022-10-06T02:19:37.128Z,2.22
2022-10-06T02:22:04.511Z,2.10
2022-10-06T02:24:31.480Z,1.70
2022-10-06T02:26:59.011Z,2.40
2022-10-06T02:29:26.146Z,2.13
2022-10-06T02:31:54.637Z,3.38
2022-10-06T02:34:22.043Z,1.85
2022-10-06T02:36:49.472Z,2.30
2022-10-06T02:39:16.685Z,2.40
2022-10-06T02:41:43.586Z,2.08
2022-10-06T02:44:10.458Z,1.90
2022-10-06T02:46:38.259Z,2.10
2022-10-06T02:49:06.002Z,2.05
2022-10-06T02:51:34.523Z,2.70
2022-10-06T02:54:01.690Z,2.75
2022-10-06T02:56:28.576Z,2.22
2022-10-06T02:58:56.669Z,1.63
2022-10-06T03:01:27.812Z,2.13
2022-10-06T03:04:00.444Z,2.53
2022-10-06T03:06:29.113Z,1.67
2022-10-06T03:09:00.791Z,2.28
2022-10-06T03:11:29.483Z,1.83
2022-10-06T03:13:57.497Z,2.17
2022-10-06T03:16:32.162Z,1.50
2022-10-06T03:19:00.461Z,1.98
2022-10-06T03:21:30.148Z,1.50
2022-10-06T03:23:57.526Z,2.60
2022-10-06T03:26:36.251Z,2.33
2022-10-06T03:29:05.958Z,1.92
2022-10-06T03:31:36.254Z,2.28
2022-10-06T03:34:03.261Z,2.22
2022-10-06T03:36:32.836Z,1.98
2022-10-06T03:39:01.696Z,1.58
2022-10-06T03:41:30.364Z,2.13
2022-10-06T03:43:58.105Z,1.75
2022-10-06T03:46:26.842Z,1.98
2022-10-06T03:48:54.028Z,2.10
2022-10-06T03:51:29.809Z,1.83
2022-10-06T03:53:57.185Z,1.60
2022-10-06T03:56:34.402Z,4.40
2022-10-06T03:59:02.656Z,4.53
2022-10-06T04:01:33.225Z,4.00
2022-10-06T04:04:03.125Z,5.68
2022-10-06T04:06:31.750Z,3.80
2022-10-06T04:08:59.133Z,3.50
2022-10-06T04:11:28.482Z,4.05
2022-10-06T04:13:58.082Z,3.83
2022-10-06T04:16:32.769Z,5.10
2022-10-06T04:19:03.190Z,3.67
2022-10-06T04:21:31.797Z,2.58
2022-10-06T04:23:59.591Z,4.15
2022-10-06T04:26:30.602Z,4.10
2022-10-06T04:28:57.874Z,4.50
2022-10-06T04:31:30.873Z,3.80
2022-10-06T04:33:59.403Z,6.50
2022-10-06T04:36:32.357Z,4.82
2022-10-06T04:39:01.445Z,3.35
2022-10-06T04:41:35.174Z,4.47
2022-10-06T04:44:03.085Z,4.63
2022-10-06T04:46:42.611Z,2.65
2022-10-06T04:49:17.596Z,3.65
2022-10-06T04:51:47.057Z,2.58
2022-10-06T04:54:14.478Z,4.55
2022-10-06T04:56:41.396Z,6.88
2022-10-06T04:59:08.302Z,4.68
2022-10-06T05:01:38.325Z,3.20
2022-10-06T05:04:09.260Z,5.38
2022-10-06T05:06:39.109Z,2.80
2022-10-06T05:09:08.484Z,3.65
2022-10-06T05:11:36.469Z,2.70
2022-10-06T05:14:05.757Z,3.97
2022-10-06T05:16:38.112Z,2.20
2022-10-06T05:19:06.664Z,3.67
2022-10-06T05:21:33.844Z,11.02
2022-10-06T05:24:02.700Z,2.67
2022-10-06T05:26:31.201Z,3.75
2022-10-06T05:28:59.635Z,3.25
2022-10-06T05:31:31.836Z,4.28
2022-10-06T05:34:01.201Z,3.88
2022-10-06T05:36:29.899Z,2.58
2022-10-06T05:38:57.863Z,4.03
2022-10-06T05:41:26.815Z,3.42
2022-10-06T05:43:54.425Z,3.13
2022-10-06T05:46:25.199Z,3.67
2022-10-06T05:48:58.735Z,4.70
2022-10-06T05:51:31.283Z,4.93
2022-10-06T05:54:00.698Z,3.67
2022-10-06T05:56:29.947Z,2.08
2022-10-06T05:58:57.498Z,5.72
2022-10-06T06:01:26.423Z,8.48
2022-10-06T06:04:03.385Z,1471.07
2022-10-06T06:06:38.629Z,944.53
2022-10-06T06:09:13.873Z,1065.38
2022-10-06T06:11:43.579Z,792.75
2022-10-06T06:14:15.320Z,909.90
2022-10-06T06:16:43.412Z,846.10
2022-10-06T06:19:11.346Z,577.85
2022-10-06T06:21:40.168Z,772.55
2022-10-06T06:24:07.198Z,580.80
2022-10-06T06:26:36.763Z,542.03
2022-10-06T06:29:04.427Z,553.60
2022-10-06T06:31:38.929Z,333.25
2022-10-06T06:34:07.113Z,383.75
2022-10-06T06:36:37.301Z,310.13
2022-10-06T06:39:09.347Z,293.95
2022-10-06T06:41:38.647Z,344.23
2022-10-06T06:44:11.614Z,320.65
2022-10-06T06:46:43.535Z,278.42
2022-10-06T06:49:14.369Z,261.52
2022-10-06T06:51:49.876Z,251.88
2022-10-06T06:54:19.318Z,251.80
2022-10-06T06:56:50.496Z,237.60
2022-10-06T06:59:20.538Z,170.95
2022-10-06T07:01:50.342Z,222.98
2022-10-06T07:04:20.502Z,212.23
2022-10-06T07:06:53.490Z,150.77
2022-10-06T07:09:21.061Z,194.25
2022-10-06T07:11:50.198Z,205.40
2022-10-06T07:14:22.617Z,152.15
2022-10-06T07:17:08.090Z,170.45
2022-10-06T07:19:55.474Z,105.68
2022-10-06T07:22:42.693Z,142.77
2022-10-06T07:25:24.367Z,146.15
2022-10-06T07:27:55.810Z,88.32
2022-10-06T07:30:27.825Z,93.72
2022-10-06T07:33:08.658Z,95.88
2022-10-06T07:35:38.637Z,101.20
2022-10-06T07:38:08.158Z,39.25
2022-10-06T07:41:18.251Z,49.78
2022-10-06T07:43:41.899Z,53.17
2022-10-06T07:46:12.028Z,49.75
2022-10-06T07:48:43.231Z,50.53
2022-10-06T07:51:17.169Z,60.70
2022-10-06T07:53:50.180Z,40.03
2022-10-06T07:56:23.115Z,43.30
2022-10-06T07:58:54.033Z,40.30
2022-10-06T08:01:22.173Z,42.15
2022-10-06T08:03:50.694Z,47.53
2022-10-06T08:06:18.945Z,48.35
2022-10-06T08:08:51.844Z,31.65
2022-10-06T08:11:20.210Z,38.15
2022-10-06T08:13:50.515Z,28.80
2022-10-06T08:16:30.458Z,35.22
2022-10-06T08:18:58.801Z,30.35
2022-10-06T08:21:30.253Z,25.35
2022-10-06T08:23:59.233Z,24.90
2022-10-06T08:26:26.906Z,11.82
2022-10-06T08:28:55.365Z,33.10
2022-10-06T08:31:22.686Z,17.42
2022-10-06T08:33:52.852Z,25.25
2022-10-06T08:36:19.940Z,21.42
2022-10-06T08:38:49.983Z,19.10
2022-10-06T08:41:25.552Z,11.95
2022-10-06T08:44:07.854Z,12.98
2022-10-06T08:46:37.755Z,15.85
2022-10-06T08:49:05.789Z,15.15
2022-10-06T08:51:50.985Z,10.82
2022-10-06T08:54:29.915Z,13.20
2022-10-06T08:57:13.698Z,16.35
2022-10-06T08:59:40.563Z,13.32
2022-10-06T09:02:28.261Z,10.98
2022-10-06T09:04:58.145Z,8.77
2022-10-06T09:07:53.625Z,10.65
2022-10-06T09:10:38.293Z,6.30
2022-10-06T09:15:51.063Z,7.55
2022-10-06T09:19:06.664Z,13.50
2022-10-06T09:21:35.479Z,13.02
2022-10-06T09:24:06.654Z,12.73
2022-10-06T09:26:33.788Z,9.63
2022-10-06T09:29:00.707Z,11.55
2022-10-06T09:31:29.548Z,8.63
2022-10-06T09:34:05.362Z,9.30
2022-10-06T09:36:32.462Z,9.02
2022-10-06T09:38:59.884Z,7.50
2022-10-06T09:41:29.817Z,6.18
2022-10-06T09:44:03.593Z,10.55
2022-10-06T09:46:35.370Z,7.05
2022-10-06T09:49:19.052Z,5.53
2022-10-06T09:52:04.710Z,9.05
2022-10-06T09:54:31.776Z,6.50
2022-10-06T09:57:00.172Z,5.82
2022-10-06T09:59:39.976Z,7.13
2022-10-06T10:02:22.876Z,7.15
2022-10-06T10:04:54.219Z,7.60
2022-10-06T10:07:26.210Z,7.72
2022-10-06T10:09:53.908Z,9.50
2022-10-06T10:12:24.635Z,7.22
2022-10-06T10:14:52.311Z,7.35
2022-10-06T10:17:21.650Z,8.90
2022-10-06T10:19:53.271Z,9.38
2022-10-06T10:22:40.610Z,6.90
2022-10-06T10:25:32.970Z,6.55
2022-10-06T10:28:17.419Z,6.97
2022-10-06T10:30:46.893Z,4.85
2022-10-06T10:33:23.080Z,5.25
2022-10-06T10:35:51.371Z,6.53
2022-10-06T10:38:24.774Z,5.43
2022-10-06T10:41:07.384Z,4.03
2022-10-06T10:43:36.114Z,5.28
2022-10-06T10:46:29.872Z,4.50
2022-10-06T10:49:11.913Z,6.50
2022-10-06T10:51:38.776Z,6.40
2022-10-06T10:54:08.791Z,7.60
2022-10-06T10:56:35.705Z,4.18
2022-10-06T10:59:15.611Z,4.43
2022-10-06T11:02:10.447Z,8.07
2022-10-06T11:07:17.917Z,3.88
2022-10-06T11:09:47.900Z,4.55
2022-10-06T11:12:20.130Z,5.20
2022-10-06T11:15:26.155Z,4.05
2022-10-06T11:17:53.036Z,4.38
2022-10-06T11:20:45.026Z,5.93
2022-10-06T11:23:40.659Z,8.25
2022-10-06T11:26:34.883Z,7.78
2022-10-06T11:29:26.313Z,8.67
2022-10-06T11:31:56.000Z,8.98
2022-10-06T11:34:22.919Z,4.32
2022-10-06T11:37:27.305Z,6.32
2022-10-06T11:39:57.693Z,5.07
2022-10-06T11:42:26.123Z,8.95
2022-10-06T11:45:04.305Z,8.57
2022-10-06T11:47:36.967Z,9.38
2022-10-06T11:50:33.402Z,25.08
2022-10-06T11:53:00.503Z,20.23
2022-10-06T11:55:29.019Z,12.25
2022-10-06T11:58:08.723Z,16.83
2022-10-06T12:00:45.349Z,15.27
2022-10-06T12:03:31.237Z,14.90
2022-10-06T12:05:58.181Z,17.23
2022-10-06T12:08:51.117Z,16.35
2022-10-06T12:11:40.043Z,16.52
2022-10-06T12:17:14.074Z,14.75
2022-10-06T12:20:16.849Z,12.82
2022-10-06T12:22:57.356Z,13.38
2022-10-06T12:25:54.931Z,7.97
2022-10-06T12:28:35.568Z,7.57
2022-10-06T12:31:25.945Z,7.53
2022-10-06T12:33:52.989Z,8.70
2022-10-06T12:36:26.411Z,10.65
2022-10-06T12:39:05.377Z,4.53
2022-10-06T12:41:54.173Z,5.70
2022-10-06T12:44:33.501Z,51.00
2022-10-06T12:47:02.126Z,9.13
2022-10-06T12:49:39.096Z,7.32
2022-10-06T12:52:45.048Z,10.55
2022-10-06T12:55:17.757Z,6.25
2022-10-06T12:57:48.860Z,4.20
2022-10-06T13:00:27.255Z,8.55
2022-10-06T13:02:54.521Z,5.82
2022-10-06T13:05:21.506Z,6.40
2022-10-06T13:07:59.197Z,5.28
2022-10-06T13:10:26.449Z,6.55
2022-10-06T13:12:55.643Z,7.47
2022-10-06T13:15:34.541Z,6.43
2022-10-06T13:18:16.041Z,7.43
2022-10-06T13:20:49.582Z,5.97
2022-10-06T13:23:35.261Z,5.70
2022-10-06T13:26:03.093Z,7.22
2022-10-06T13:28:35.990Z,5.88
2022-10-06T13:31:15.246Z,5.95
2022-10-06T13:33:46.158Z,8.50
2022-10-06T13:36:13.519Z,13.98
2022-10-06T13:38:41.813Z,5.57
2022-10-06T13:41:22.190Z,5.50
2022-10-06T13:43:55.923Z,8.38
2022-10-06T13:46:25.324Z,6.93
2022-10-06T13:48:59.792Z,7.15
2022-10-06T13:51:30.250Z,7.53
2022-10-06T13:54:03.100Z,7.13
2022-10-06T13:56:40.031Z,4.65
2022-10-06T13:59:30.350Z,4.97
2022-10-06T14:01:58.958Z,9.38
2022-10-06T14:04:26.345Z,4.88
2022-10-06T14:06:55.397Z,7.30
2022-10-06T14:09:32.232Z,6.75
2022-10-06T14:12:13.544Z,5.28
2022-10-06T14:14:45.909Z,5.68
2022-10-06T14:17:26.047Z,6.03
2022-10-06T14:19:52.996Z,4.78
2022-10-06T14:22:37.931Z,4.28
2022-10-06T14:25:11.690Z,5.00
2022-10-06T14:27:38.722Z,4.60
2022-10-06T14:30:06.438Z,5.05
2022-10-06T14:32:33.513Z,6.38
2022-10-06T14:35:02.558Z,3.70
2022-10-06T14:37:29.588Z,4.75
2022-10-06T14:39:56.939Z,5.20
2022-10-06T14:42:24.848Z,6.15
2022-10-06T14:44:51.860Z,3.75
2022-10-06T14:47:18.931Z,5.35
2022-10-06T14:49:46.365Z,3.83
2022-10-06T14:52:13.607Z,4.05
2022-10-06T14:54:42.734Z,5.53
2022-10-06T14:57:09.853Z,3.33
2022-10-06T14:59:37.222Z,5.25
2022-10-06T15:02:04.412Z,6.38
2022-10-06T15:04:31.623Z,4.30
2022-10-06T15:07:17.546Z,3.72
2022-10-06T15:09:44.641Z,3.60
2022-10-06T15:12:11.720Z,5.80
2022-10-06T15:14:39.909Z,4.20
2022-10-06T15:17:07.250Z,4.63
2022-10-06T15:19:34.370Z,4.50
2022-10-06T15:22:01.599Z,3.72
2022-10-06T15:24:28.686Z,4.32
2022-10-06T15:27:14.279Z,5.38
2022-10-06T15:29:42.381Z,5.38
2022-10-06T15:32:09.519Z,4.18
2022-10-06T15:34:37.963Z,4.93
2022-10-06T15:37:05.198Z,3.80
2022-10-06T15:39:34.560Z,3.28
2022-10-06T15:42:01.906Z,4.13
2022-10-06T15:44:31.922Z,5.13
2022-10-06T15:46:59.263Z,3.97
2022-10-06T15:49:26.986Z,3.42
2022-10-06T15:51:57.062Z,4.07
2022-10-06T15:54:32.343Z,3.30
2022-10-06T15:57:00.855Z,4.03
2022-10-06T15:59:28.500Z,3.83
2022-10-06T16:01:57.447Z,5.40
2022-10-06T16:04:44.634Z,3.10
2022-10-06T16:07:20.280Z,8.77
2022-10-06T16:09:48.403Z,4.28
2022-10-06T16:12:17.747Z,4.38
2022-10-06T16:14:44.697Z,4.32
2022-10-06T16:17:12.169Z,3.78
2022-10-06T16:19:40.304Z,4.13
2022-10-06T16:22:09.439Z,4.95
2022-10-06T16:24:36.401Z,4.35
2022-10-06T16:27:03.348Z,4.03
2022-10-06T16:29:30.317Z,4.70
2022-10-06T16:31:57.930Z,4.32
2022-10-06T16:34:25.569Z,4.60
2022-10-06T16:36:52.456Z,4.53
2022-10-06T16:39:20.686Z,4.72
2022-10-06T16:41:47.763Z,4.82
2022-10-06T16:44:14.616Z,3.78
2022-10-06T16:46:41.597Z,3.80
2022-10-06T16:49:09.284Z,4.40
2022-10-06T16:51:43.401Z,3.75
2022-10-06T16:54:11.851Z,4.63
2022-10-06T16:56:43.616Z,4.45
2022-10-06T16:59:13.998Z,4.50
2022-10-06T17:01:41.036Z,3.65
2022-10-06T17:04:15.844Z,4.55
2022-10-06T17:06:44.199Z,3.33
2022-10-06T17:09:15.561Z,3.85
2022-10-06T17:11:43.766Z,3.85
2022-10-06T17:14:10.663Z,3.53
2022-10-06T17:16:38.981Z,2.78
2022-10-06T17:19:06.496Z,4.53
2022-10-06T17:21:45.537Z,3.63
2022-10-06T17:24:13.482Z,4.13
2022-10-06T17:26:41.685Z,3.08
2022-10-06T17:29:12.875Z,3.58
2022-10-06T17:31:40.927Z,3.70
2022-10-06T17:34:11.416Z,3.42
2022-10-06T17:36:39.248Z,3.88
2022-10-06T17:39:06.657Z,4.47
2022-10-06T17:41:35.810Z,4.65
2022-10-06T17:44:04.474Z,4.72
2022-10-06T17:46:34.308Z,3.83
2022-10-06T17:49:03.057Z,4.35
2022-10-06T17:51:29.891Z,3.65
2022-10-06T17:53:57.426Z,3.45
2022-10-06T17:56:25.473Z,4.63
2022-10-06T17:58:58.915Z,5.13
2022-10-06T18:01:27.240Z,3.17
2022-10-06T18:04:38.715Z,3.95
2022-10-06T18:07:06.199Z,3.72
2022-10-06T18:09:33.040Z,3.63
2022-10-06T18:12:01.203Z,5.10
2022-10-06T18:14:30.371Z,4.10
2022-10-06T18:17:01.857Z,3.67
2022-10-06T18:19:30.284Z,3.90
2022-10-06T18:21:59.988Z,3.90
2022-10-06T18:24:28.253Z,3.88
2022-10-06T18:26:56.080Z,4.43
2022-10-06T18:29:28.976Z,4.13
2022-10-06T18:32:01.547Z,3.90
2022-10-06T18:37:29.718Z,3.92
2022-10-06T18:40:23.014Z,3.90
2022-10-06T18:43:30.919Z,3.35
2022-10-06T18:46:20.079Z,4.15
2022-10-06T18:48:56.418Z,4.50
2022-10-06T18:51:32.628Z,3.70
2022-10-06T18:54:00.509Z,3.95
2022-10-06T18:56:31.226Z,4.07
2022-10-06T18:58:59.012Z,3.70
2022-10-06T19:01:27.059Z,3.60
2022-10-06T19:04:01.802Z,3.53
2022-10-06T19:06:32.606Z,4.50
2022-10-06T19:09:00.891Z,3.80
2022-10-06T19:11:47.635Z,4.93
2022-10-06T19:14:16.088Z,3.70
2022-10-06T19:16:43.218Z,3.88
2022-10-06T19:19:12.173Z,3.65
2022-10-06T19:21:40.779Z,4.78
2022-10-06T19:24:09.658Z,4.38
2022-10-06T19:26:36.769Z,3.08
2022-10-06T19:29:04.177Z,3.17
2022-10-06T19:31:31.206Z,3.83
2022-10-06T19:34:00.746Z,4.97
2022-10-06T19:36:28.536Z,3.92
2022-10-06T19:38:57.526Z,4.35
2022-10-06T19:41:43.791Z,4.03
2022-10-06T19:44:10.792Z,4.15
2022-10-06T19:46:37.684Z,3.70
2022-10-06T19:49:05.983Z,4.43
2022-10-06T19:51:34.169Z,3.75
2022-10-06T19:54:02.675Z,4.13
2022-10-06T19:56:30.157Z,3.88
2022-10-06T19:58:58.476Z,4.90
2022-10-06T20:01:26.774Z,4.05
2022-10-06T20:03:53.809Z,4.57
2022-10-06T20:06:20.930Z,3.97
2022-10-06T20:08:47.804Z,3.83
2022-10-06T20:11:21.918Z,3.85
2022-10-06T20:14:27.400Z,4.05
2022-10-06T20:19:26.711Z,6.15
2022-10-06T20:21:53.597Z,4.53
2022-10-06T20:24:24.958Z,3.72
2022-10-06T20:26:52.348Z,4.47
2022-10-06T20:29:25.404Z,3.90
2022-10-06T20:31:54.072Z,4.15
2022-10-06T20:34:23.494Z,4.70
2022-10-06T20:36:54.760Z,4.60
2022-10-06T20:39:41.942Z,3.97
2022-10-06T20:43:42.614Z,4.70
2022-10-06T20:46:09.909Z,3.90
2022-10-06T20:48:36.945Z,4.65
2022-10-06T20:51:10.425Z,3.65
2022-10-06T20:53:37.256Z,4.35
2022-10-06T20:56:05.668Z,4.07
2022-10-06T20:58:32.824Z,4.28
2022-10-06T21:01:06.586Z,4.50
2022-10-06T21:03:34.711Z,4.38
2022-10-06T21:06:01.865Z,4.38
2022-10-06T21:08:29.724Z,3.67
2022-10-06T21:11:00.557Z,4.10
2022-10-06T21:13:28.390Z,4.45
2022-10-06T21:16:01.627Z,4.15
2022-10-06T21:18:28.597Z,3.92
2022-10-06T21:20:57.315Z,3.80
2022-10-06T21:23:24.206Z,3.97
2022-10-06T21:25:51.092Z,4.38
2022-10-06T21:28:19.735Z,4.68
2022-10-06T21:30:46.714Z,4.30
2022-10-06T21:33:13.607Z,5.43
2022-10-06T21:35:40.494Z,3.92
2022-10-06T21:38:07.424Z,4.45
2022-10-06T21:40:37.504Z,4.35
2022-10-06T21:43:04.574Z,4.15
2022-10-06T21:45:33.204Z,4.40
2022-10-06T21:48:00.509Z,3.58
2022-10-06T21:50:27.499Z,3.90
2022-10-06T21:52:54.401Z,4.63
2022-10-06T21:55:21.305Z,4.13
2022-10-06T21:57:48.168Z,3.63
2022-10-06T22:00:15.091Z,4.88
2022-10-06T22:02:41.936Z,5.03
2022-10-06T22:05:09.116Z,4.90
2022-10-06T22:07:36.027Z,4.32
2022-10-06T22:10:03.101Z,4.45
2022-10-06T22:12:29.987Z,4.57
2022-10-06T22:14:59.176Z,4.15
2022-10-06T22:17:26.760Z,4.90
2022-10-06T22:19:53.711Z,4.57
2022-10-06T22:22:20.621Z,4.43
2022-10-06T22:24:47.514Z,4.70
2022-10-06T22:27:14.416Z,5.00
2022-10-06T22:29:42.061Z,4.10
2022-10-06T22:32:08.910Z,4.13
2022-10-06T22:34:35.750Z,5.00
2022-10-06T22:37:03.109Z,3.90
2022-10-06T22:39:30.058Z,4.30
2022-10-06T22:41:56.921Z,6.22
2022-10-06T22:44:23.871Z,4.03
2022-10-06T22:46:50.795Z,4.10
2022-10-06T22:49:17.666Z,5.68
2022-10-06T22:51:44.555Z,4.13
2022-10-06T22:54:16.293Z,4.43
2022-10-06T22:56:43.165Z,4.63
2022-10-06T22:59:10.022Z,4.40
2022-10-06T23:01:36.852Z,3.85
2022-10-06T23:04:03.730Z,4.22
2022-10-06T23:06:31.606Z,5.20
2022-10-06T23:08:58.591Z,5.13
2022-10-06T23:11:25.510Z,4.65
2022-10-06T23:13:53.263Z,5.10
2022-10-06T23:16:20.609Z,4.30
2022-10-06T23:18:47.774Z,5.28
2022-10-06T23:21:21.945Z,4.38
2022-10-06T23:23:52.918Z,5.93
2022-10-06T23:26:19.921Z,6.32
2022-10-06T23:28:50.081Z,5.78
2022-10-06T23:31:16.976Z,6.35
2022-10-06T23:33:43.864Z,5.93
2022-10-06T23:36:11.731Z,3.83
2022-10-06T23:38:38.947Z,5.90
2022-10-06T23:41:06.201Z,5.05
2022-10-06T23:43:33.120Z,5.18
2022-10-06T23:46:00.243Z,4.53
2022-10-06T23:48:27.275Z,6.28
2022-10-06T23:51:01.693Z,5.30
2022-10-06T23:53:29.232Z,4.45
2022-10-06T23:55:56.249Z,5.00
2022-10-06T23:58:23.243Z,5.38
